Terminal Aerodrome Forecast
Issued by NWS Charleston, WV

Current Version | Previous Version | Graphics & Text | Print | Product List | Glossary On
Versions: 1 2 3 4 5 6 7 8 9 10 11 12 13 14 15 16 17 18 19 20 21 22 23 24 25 26 27 28 29 30 31 32
000
FTUS41 KRLX 231946 AAC
TAFHTS
TAF AMD
KHTS 231946Z 2320/2418 25012G22KT P6SM VCTS BKN060CB
      TEMPO 2320/2323 2SM SHRA BR OVC025
     FM240300 00000KT P6SM SHRA OVC025
     FM240600 00000KT 5SM BR OVC015
     FM240900 00000KT 2SM +SHRA OVC025
     FM241100 00000KT 3SM +SHRA OVC008=

USA.gov is the U.S. government's official web portal to all federal, state and local government web resources and services.